createdAt,value
2023-05-11T00:00:51.009Z,8.17
2023-05-11T00:03:17.994Z,7.83
2023-05-11T00:05:47.876Z,7.43
2023-05-11T00:08:17.133Z,8.23
2023-05-11T00:10:47.624Z,7.73
2023-05-11T00:13:14.356Z,7.50
2023-05-11T00:15:41.302Z,7.53
2023-05-11T00:18:08.304Z,7.27
2023-05-11T00:20:35.088Z,7.23
2023-05-11T00:23:01.966Z,7.80
2023-05-11T00:25:28.634Z,7.63
2023-05-11T00:27:55.290Z,7.77
2023-05-11T00:30:22.042Z,7.60
2023-05-11T00:32:52.328Z,7.87
2023-05-11T00:35:19.131Z,7.10
2023-05-11T00:37:45.966Z,8.33
2023-05-11T00:40:13.147Z,7.70
2023-05-11T00:42:40.167Z,8.53
2023-05-11T00:45:07.061Z,8.10
2023-05-11T00:47:33.821Z,8.07
2023-05-11T00:50:00.837Z,7.80
2023-05-11T00:52:27.585Z,7.13
2023-05-11T00:54:54.375Z,7.53
2023-05-11T00:57:21.503Z,7.90
2023-05-11T00:59:49.309Z,7.40
2023-05-11T01:02:17.024Z,7.27
2023-05-11T01:04:44.051Z,7.97
2023-05-11T01:07:19.758Z,8.30
2023-05-11T01:10:08.957Z,8.70
2023-05-11T01:12:53.238Z,9.17
2023-05-11T01:15:52.441Z,10.33
2023-05-11T01:18:35.392Z,9.13
2023-05-11T01:21:09.605Z,10.10
2023-05-11T01:23:39.527Z,9.37
2023-05-11T01:26:15.840Z,9.20
2023-05-11T01:29:02.200Z,10.33
2023-05-11T01:31:33.691Z,9.90
2023-05-11T01:34:17.728Z,10.73
2023-05-11T01:36:52.004Z,11.23
2023-05-11T01:39:22.100Z,11.70
2023-05-11T01:41:51.803Z,11.83
2023-05-11T01:44:19.996Z,12.43
2023-05-11T01:46:47.061Z,13.00
2023-05-11T01:49:14.483Z,13.40
2023-05-11T01:51:42.849Z,13.70
2023-05-11T01:54:10.277Z,13.70
2023-05-11T01:56:38.736Z,13.40
2023-05-11T01:59:05.697Z,14.13
2023-05-11T02:01:34.283Z,13.67
2023-05-11T02:04:02.338Z,13.23
2023-05-11T02:06:29.695Z,12.37
2023-05-11T02:08:58.079Z,13.03
2023-05-11T02:11:26.208Z,13.07
2023-05-11T02:13:53.533Z,13.63
2023-05-11T02:16:20.638Z,12.90
2023-05-11T02:18:49.145Z,13.47
2023-05-11T02:21:16.696Z,13.70
2023-05-11T02:23:46.689Z,12.90
2023-05-11T02:26:14.917Z,14.07
2023-05-11T02:28:41.908Z,14.37
2023-05-11T02:31:10.563Z,13.70
2023-05-11T02:33:42.971Z,15.80
2023-05-11T02:36:10.469Z,14.53
2023-05-11T02:38:38.803Z,14.17
2023-05-11T02:41:11.992Z,15.40
2023-05-11T02:43:42.590Z,15.77
2023-05-11T02:46:14.537Z,16.20
2023-05-11T02:48:47.188Z,16.60
2023-05-11T02:51:17.175Z,15.93
2023-05-11T02:53:49.216Z,16.53
2023-05-11T02:56:16.189Z,15.47
2023-05-11T02:58:43.279Z,17.13
2023-05-11T03:01:17.173Z,16.60
2023-05-11T03:03:44.399Z,16.03
2023-05-11T03:06:11.353Z,15.70
2023-05-11T03:08:38.072Z,16.50
2023-05-11T03:11:05.055Z,16.83
2023-05-11T03:13:32.374Z,16.93
2023-05-11T03:16:02.687Z,16.60
2023-05-11T03:18:32.620Z,17.03
2023-05-11T03:21:00.772Z,16.23
2023-05-11T03:23:28.592Z,16.90
2023-05-11T03:25:56.317Z,17.43
2023-05-11T03:28:24.436Z,16.87
2023-05-11T03:30:59.992Z,17.00
2023-05-11T03:33:26.756Z,18.13
2023-05-11T03:35:54.195Z,17.33
2023-05-11T03:38:24.417Z,16.57
2023-05-11T03:40:53.229Z,17.43
2023-05-11T03:43:21.083Z,17.20
2023-05-11T03:45:51.767Z,17.07
2023-05-11T03:48:19.275Z,17.20
2023-05-11T03:50:46.891Z,17.10
2023-05-11T03:53:15.783Z,17.87
2023-05-11T03:55:43.254Z,17.93
2023-05-11T03:58:10.444Z,18.90
2023-05-11T04:00:40.897Z,20.73
2023-05-11T04:03:12.502Z,20.60
2023-05-11T04:05:39.370Z,19.33
2023-05-11T04:08:09.862Z,20.40
2023-05-11T04:10:38.479Z,20.77
2023-05-11T04:13:05.208Z,20.33
2023-05-11T04:15:31.865Z,19.13
2023-05-11T04:17:58.676Z,19.33
2023-05-11T04:20:25.639Z,19.83
2023-05-11T04:22:52.382Z,18.67
2023-05-11T04:25:19.208Z,19.30
2023-05-11T04:27:45.890Z,19.13
2023-05-11T04:30:12.887Z,19.10
2023-05-11T04:32:39.942Z,19.17
2023-05-11T04:35:06.852Z,18.00
2023-05-11T04:37:36.857Z,17.70
2023-05-11T04:40:06.040Z,17.90
2023-05-11T04:42:38.201Z,16.93
2023-05-11T04:45:08.472Z,16.77
2023-05-11T04:47:35.263Z,17.33
2023-05-11T04:50:02.308Z,17.17
2023-05-11T04:52:30.757Z,17.03
2023-05-11T04:54:57.434Z,16.60
2023-05-11T04:57:24.139Z,15.87
2023-05-11T04:59:51.074Z,15.73
2023-05-11T05:02:17.760Z,15.40
2023-05-11T05:04:44.975Z,15.60
2023-05-11T05:07:12.763Z,16.10
2023-05-11T05:09:39.516Z,15.00
2023-05-11T05:12:06.328Z,16.50
2023-05-11T05:14:33.130Z,15.60
2023-05-11T05:17:01.616Z,14.87
2023-05-11T05:19:28.970Z,15.90
2023-05-11T05:21:55.893Z,13.67
2023-05-11T05:24:22.700Z,14.87
2023-05-11T05:26:49.439Z,15.87
2023-05-11T05:29:16.779Z,13.33
2023-05-11T05:31:44.010Z,14.07
2023-05-11T05:34:11.626Z,13.63
2023-05-11T05:36:39.635Z,12.70
2023-05-11T05:39:12.186Z,13.13
2023-05-11T05:41:40.077Z,13.73
2023-05-11T05:44:08.695Z,12.33
2023-05-11T05:46:36.840Z,12.53
2023-05-11T05:49:04.308Z,11.87
2023-05-11T05:51:31.562Z,12.30
2023-05-11T05:53:58.873Z,12.60
2023-05-11T05:56:26.601Z,12.00
2023-05-11T05:58:53.492Z,12.13
2023-05-11T06:01:22.149Z,12.03
2023-05-11T06:03:49.446Z,12.37
2023-05-11T06:06:16.440Z,11.83
2023-05-11T06:08:44.243Z,11.10
2023-05-11T06:11:11.120Z,12.03
2023-05-11T06:13:38.333Z,11.77
2023-05-11T06:16:05.231Z,10.77
2023-05-11T06:18:34.113Z,11.83
2023-05-11T06:21:02.964Z,11.17
2023-05-11T06:23:31.486Z,11.10
2023-05-11T06:25:58.250Z,11.10
2023-05-11T06:28:26.379Z,11.03
2023-05-11T06:30:59.401Z,10.57
2023-05-11T06:33:29.107Z,11.30
2023-05-11T06:35:56.212Z,10.40
2023-05-11T06:38:23.509Z,11.40
2023-05-11T06:40:53.821Z,11.47
2023-05-11T06:43:20.658Z,10.70
2023-05-11T06:45:48.788Z,10.70
2023-05-11T06:48:17.211Z,10.63
2023-05-11T06:50:44.001Z,11.40
2023-05-11T06:53:12.982Z,10.60
2023-05-11T06:55:40.110Z,10.70
2023-05-11T06:58:07.109Z,11.03
2023-05-11T07:00:34.399Z,11.47
2023-05-11T07:03:01.273Z,11.83
2023-05-11T07:05:28.316Z,11.17
2023-05-11T07:07:55.184Z,11.43
2023-05-11T07:10:22.019Z,11.50
2023-05-11T07:12:49.372Z,11.07
2023-05-11T07:15:16.075Z,10.87
2023-05-11T07:17:43.190Z,10.90
2023-05-11T07:20:10.099Z,10.20
2023-05-11T07:22:36.730Z,9.47
2023-05-11T07:25:05.060Z,10.03
2023-05-11T07:27:32.994Z,10.50
2023-05-11T07:29:59.647Z,10.27
2023-05-11T07:32:26.868Z,10.70
2023-05-11T07:34:53.817Z,11.03
2023-05-11T07:37:20.492Z,10.60
2023-05-11T07:39:47.917Z,11.20
2023-05-11T07:42:14.646Z,10.50
2023-05-11T07:44:41.396Z,10.47
2023-05-11T07:47:08.197Z,10.23
2023-05-11T07:49:43.031Z,10.47
2023-05-11T07:52:11.310Z,10.47
2023-05-11T07:54:38.128Z,10.63
2023-05-11T07:57:05.459Z,10.07
2023-05-11T07:59:32.583Z,9.47
2023-05-11T08:01:59.649Z,10.63
2023-05-11T08:04:27.261Z,9.53
2023-05-11T08:06:54.020Z,9.97
2023-05-11T08:09:20.685Z,9.77
2023-05-11T08:11:47.852Z,10.03
2023-05-11T08:14:14.526Z,9.27
2023-05-11T08:16:41.554Z,8.70
2023-05-11T08:19:08.446Z,8.90
2023-05-11T08:21:35.150Z,9.70
2023-05-11T08:24:01.777Z,9.67
2023-05-11T08:26:28.666Z,9.37
2023-05-11T08:28:55.290Z,9.70
2023-05-11T08:31:22.052Z,8.80
2023-05-11T08:33:48.877Z,8.90
2023-05-11T08:36:15.884Z,9.23
2023-05-11T08:38:42.619Z,9.00
2023-05-11T08:41:12.063Z,8.17
2023-05-11T08:43:39.911Z,8.60
2023-05-11T08:46:11.665Z,8.63
2023-05-11T08:48:38.586Z,8.33
2023-05-11T08:51:05.723Z,9.20
2023-05-11T08:53:32.949Z,8.70
2023-05-11T08:56:01.402Z,8.83
2023-05-11T08:58:28.842Z,9.33
2023-05-11T09:00:55.985Z,10.20
2023-05-11T09:03:23.177Z,10.20
2023-05-11T09:05:50.326Z,10.70
2023-05-11T09:08:18.217Z,10.53
2023-05-11T09:10:44.998Z,11.57
2023-05-11T09:13:11.996Z,12.40
2023-05-11T09:15:39.452Z,11.87
2023-05-11T09:18:07.182Z,11.83
2023-05-11T09:20:36.702Z,12.50
2023-05-11T09:23:03.684Z,11.70
2023-05-11T09:25:33.251Z,11.87
2023-05-11T09:28:00.590Z,11.67
2023-05-11T09:30:28.565Z,12.43
2023-05-11T09:32:59.517Z,11.70
2023-05-11T09:35:28.709Z,10.90
2023-05-11T09:37:59.397Z,12.23
2023-05-11T09:40:27.793Z,11.63
2023-05-11T09:43:01.451Z,11.57
2023-05-11T09:45:35.853Z,12.60
2023-05-11T09:48:04.441Z,13.77
2023-05-11T09:50:32.908Z,12.00
2023-05-11T09:52:59.789Z,12.63
2023-05-11T09:55:26.502Z,12.47
2023-05-11T09:57:54.884Z,11.87
2023-05-11T10:00:21.820Z,11.60
2023-05-11T10:02:59.635Z,12.10
2023-05-11T10:05:26.578Z,11.33
2023-05-11T10:08:00.296Z,11.60
2023-05-11T10:10:31.152Z,11.60
2023-05-11T10:12:58.656Z,12.07
2023-05-11T10:15:27.106Z,11.57
2023-05-11T10:17:55.056Z,11.90
2023-05-11T10:20:22.063Z,11.07
2023-05-11T10:22:51.457Z,10.60
2023-05-11T10:25:18.532Z,11.60
2023-05-11T10:27:45.895Z,10.73
2023-05-11T10:30:13.354Z,10.83
2023-05-11T10:32:40.245Z,11.70
2023-05-11T10:35:07.444Z,11.90
2023-05-11T10:37:34.167Z,11.87
2023-05-11T10:40:00.955Z,12.67
2023-05-11T10:42:33.891Z,13.07
2023-05-11T10:45:09.154Z,12.43
2023-05-11T10:47:47.981Z,11.80
2023-05-11T10:50:20.673Z,11.90
2023-05-11T10:53:04.777Z,11.30
2023-05-11T10:55:34.581Z,10.47
2023-05-11T11:01:40.530Z,11.13
2023-05-11T11:04:08.363Z,10.10
2023-05-11T11:06:36.030Z,10.50
2023-05-11T11:09:04.559Z,10.47
2023-05-11T11:11:39.360Z,10.00
2023-05-11T11:14:07.161Z,10.93
2023-05-11T11:16:34.168Z,9.73
2023-05-11T11:19:19.423Z,10.27
2023-05-11T11:21:46.083Z,10.73
2023-05-11T11:24:32.666Z,11.33
2023-05-11T11:26:59.332Z,12.00
2023-05-11T11:29:25.972Z,11.50
2023-05-11T11:31:52.579Z,10.70
2023-05-11T11:34:28.527Z,11.73
2023-05-11T11:36:55.281Z,12.13
2023-05-11T11:39:22.366Z,12.40
2023-05-11T11:42:01.668Z,10.93
2023-05-11T11:44:29.072Z,12.33
2023-05-11T11:47:10.984Z,13.97
2023-05-11T11:49:38.307Z,13.50
2023-05-11T11:52:09.174Z,13.23
2023-05-11T11:54:42.558Z,12.53
2023-05-11T11:57:39.588Z,11.93
2023-05-11T12:00:13.096Z,11.23
2023-05-11T12:02:44.176Z,12.07
2023-05-11T12:05:19.507Z,11.07
2023-05-11T12:07:47.383Z,11.47
2023-05-11T12:10:14.956Z,10.93
2023-05-11T12:12:45.192Z,9.83
2023-05-11T12:15:22.797Z,9.77
2023-05-11T12:17:49.540Z,9.63
2023-05-11T12:20:18.430Z,10.30
2023-05-11T12:22:47.638Z,10.33
2023-05-11T12:25:15.953Z,10.30
2023-05-11T12:27:58.164Z,9.53
2023-05-11T12:30:26.309Z,9.43
2023-05-11T12:35:25.240Z,9.10
2023-05-11T12:37:52.494Z,9.23
2023-05-11T12:40:19.292Z,8.80
2023-05-11T12:42:52.875Z,7.97
2023-05-11T12:45:20.728Z,8.30
2023-05-11T12:47:48.024Z,7.33
2023-05-11T12:50:15.073Z,8.87
2023-05-11T12:52:41.746Z,8.33
2023-05-11T12:55:09.866Z,9.03
2023-05-11T12:57:36.458Z,8.53
2023-05-11T13:00:11.261Z,8.77
2023-05-11T13:02:50.183Z,8.47
2023-05-11T13:05:17.366Z,8.37
2023-05-11T13:07:44.542Z,7.93
2023-05-11T13:10:12.153Z,7.83
2023-05-11T13:12:50.494Z,8.60
2023-05-11T13:15:17.883Z,8.33
2023-05-11T13:17:44.941Z,8.03
2023-05-11T13:20:15.829Z,8.33
2023-05-11T13:22:42.838Z,7.70
2023-05-11T13:25:10.764Z,7.30
2023-05-11T13:27:37.995Z,7.93
2023-05-11T13:30:05.428Z,7.63
2023-05-11T13:32:32.294Z,7.77
2023-05-11T13:35:01.654Z,8.37
2023-05-11T13:37:28.446Z,9.07
2023-05-11T13:39:55.053Z,8.43
2023-05-11T13:42:21.710Z,8.07
2023-05-11T13:44:48.366Z,8.33
2023-05-11T13:47:15.107Z,8.40
2023-05-11T13:49:42.372Z,8.10
2023-05-11T13:52:09.151Z,7.53
2023-05-11T13:54:35.995Z,7.10
2023-05-11T13:57:02.952Z,7.07
2023-05-11T13:59:29.761Z,7.97
2023-05-11T14:01:56.918Z,7.27
2023-05-11T14:04:25.553Z,7.70
2023-05-11T14:06:52.302Z,7.13
2023-05-11T14:09:19.141Z,7.10
2023-05-11T14:11:45.938Z,6.73
2023-05-11T14:14:13.132Z,6.83
2023-05-11T14:16:39.894Z,7.17
2023-05-11T14:19:08.019Z,8.10
2023-05-11T14:21:35.402Z,8.87
2023-05-11T14:24:11.473Z,7.23
2023-05-11T14:26:39.882Z,7.00
2023-05-11T14:29:07.754Z,7.30
2023-05-11T14:31:35.408Z,5.90
2023-05-11T14:34:02.917Z,6.80
2023-05-11T14:36:30.031Z,7.10
2023-05-11T14:38:56.736Z,7.07
2023-05-11T14:41:23.692Z,8.50
2023-05-11T14:43:50.484Z,7.57
2023-05-11T14:46:18.009Z,7.93
2023-05-11T14:48:44.787Z,7.43
2023-05-11T14:51:11.478Z,7.17
2023-05-11T14:53:38.401Z,7.33
2023-05-11T14:56:05.305Z,7.80
2023-05-11T14:58:32.324Z,7.07
2023-05-11T15:00:59.170Z,7.73
2023-05-11T15:03:26.022Z,7.07
2023-05-11T15:05:52.878Z,7.00
2023-05-11T15:08:29.705Z,6.50
2023-05-11T15:10:57.157Z,8.07
2023-05-11T15:13:24.427Z,8.43
2023-05-11T15:15:51.971Z,6.80
2023-05-11T15:18:19.138Z,6.87
2023-05-11T15:20:46.442Z,8.83
2023-05-11T15:23:17.041Z,8.90
2023-05-11T15:25:45.126Z,8.60
2023-05-11T15:28:12.189Z,8.60
2023-05-11T15:30:39.008Z,8.83
2023-05-11T15:33:05.854Z,7.10
2023-05-11T15:35:37.465Z,7.30
2023-05-11T15:38:04.120Z,7.87
2023-05-11T15:40:30.895Z,8.90
2023-05-11T15:42:58.762Z,8.27
2023-05-11T15:45:26.076Z,7.30
2023-05-11T15:47:52.860Z,7.20
2023-05-11T15:50:19.901Z,7.53
2023-05-11T15:52:47.343Z,6.70
2023-05-11T15:55:14.519Z,7.33
2023-05-11T15:57:41.289Z,7.80
2023-05-11T16:00:10.672Z,7.63
2023-05-11T16:02:37.509Z,7.43
2023-05-11T16:05:04.454Z,7.73
2023-05-11T16:07:32.716Z,7.17
2023-05-11T16:09:59.527Z,7.63
2023-05-11T16:12:26.857Z,8.40
2023-05-11T16:14:53.514Z,7.77
2023-05-11T16:17:20.593Z,8.37
2023-05-11T16:19:47.519Z,8.57
2023-05-11T16:22:14.209Z,8.80
2023-05-11T16:24:40.965Z,8.03
2023-05-11T16:27:07.685Z,9.13
2023-05-11T16:29:34.610Z,7.60
2023-05-11T16:32:01.757Z,7.83
2023-05-11T16:34:28.525Z,7.50
2023-05-11T16:36:56.754Z,6.70
2023-05-11T16:39:25.409Z,7.43
2023-05-11T16:41:52.084Z,6.70
2023-05-11T16:44:18.722Z,7.60
2023-05-11T16:46:45.379Z,6.87
2023-05-11T16:49:12.130Z,6.67
2023-05-11T16:51:38.864Z,6.40
2023-05-11T16:54:05.594Z,6.37
2023-05-11T16:56:32.319Z,6.73
2023-05-11T16:58:59.200Z,7.00
2023-05-11T17:01:26.517Z,7.40
2023-05-11T17:03:53.290Z,7.40
2023-05-11T17:06:22.915Z,7.97
2023-05-11T17:08:49.785Z,8.00
2023-05-11T17:11:16.425Z,7.70
2023-05-11T17:13:43.065Z,8.20
2023-05-11T17:16:10.016Z,8.43
2023-05-11T17:18:36.851Z,8.33
2023-05-11T17:21:03.653Z,8.67
2023-05-11T17:23:31.582Z,8.37
2023-05-11T17:25:58.519Z,8.70
2023-05-11T17:28:25.236Z,8.77
2023-05-11T17:30:54.715Z,8.83
2023-05-11T17:33:21.506Z,8.90
2023-05-11T17:35:48.856Z,8.50
2023-05-11T17:38:16.060Z,8.67
2023-05-11T17:40:42.900Z,8.90
2023-05-11T17:43:09.662Z,9.13
2023-05-11T17:45:36.833Z,9.53
2023-05-11T17:48:03.671Z,9.20
2023-05-11T17:50:30.671Z,8.27
2023-05-11T17:52:57.398Z,9.13
2023-05-11T17:55:24.555Z,9.63
2023-05-11T17:57:51.922Z,9.60
2023-05-11T18:00:19.091Z,10.80
2023-05-11T18:02:47.307Z,10.10
2023-05-11T18:05:15.931Z,11.33
2023-05-11T18:07:42.880Z,12.13
2023-05-11T18:10:11.111Z,13.87
2023-05-11T18:12:37.893Z,14.23
2023-05-11T18:15:05.005Z,14.10
2023-05-11T18:17:31.873Z,16.20
2023-05-11T18:19:58.654Z,17.53
2023-05-11T18:22:25.468Z,18.50
2023-05-11T18:24:52.549Z,18.23
2023-05-11T18:27:19.332Z,18.47
2023-05-11T18:29:46.372Z,19.57
2023-05-11T18:32:13.116Z,20.03
2023-05-11T18:34:41.469Z,19.50
2023-05-11T18:37:09.260Z,19.73
2023-05-11T18:39:37.163Z,19.93
2023-05-11T18:42:04.087Z,20.23
2023-05-11T18:44:30.877Z,19.83
2023-05-11T18:46:57.726Z,19.30
2023-05-11T18:49:24.559Z,19.90
2023-05-11T18:51:51.377Z,17.93
2023-05-11T18:54:18.582Z,12.77
2023-05-11T18:56:46.736Z,13.23
2023-05-11T18:59:13.666Z,13.70
2023-05-11T19:04:13.667Z,15.17
2023-05-11T19:06:41.013Z,15.10
2023-05-11T19:09:07.772Z,14.97
2023-05-11T19:11:35.645Z,14.83
2023-05-11T19:14:02.916Z,16.27
2023-05-11T19:16:32.759Z,16.50
2023-05-11T19:18:59.872Z,16.20
2023-05-11T19:21:26.720Z,15.83
2023-05-11T19:23:53.621Z,15.87
2023-05-11T19:26:20.422Z,15.93
2023-05-11T19:28:47.177Z,16.07
2023-05-11T19:31:13.992Z,16.20
2023-05-11T19:33:40.730Z,16.03
2023-05-11T19:36:07.523Z,17.47
2023-05-11T19:38:36.011Z,18.00
2023-05-11T19:41:03.614Z,16.43
2023-05-11T19:43:33.294Z,15.60
2023-05-11T19:46:02.571Z,16.77
2023-05-11T19:48:30.033Z,17.10
2023-05-11T19:50:57.232Z,17.47
2023-05-11T19:53:24.439Z,17.17
2023-05-11T19:55:51.170Z,16.93
2023-05-11T19:58:17.877Z,18.07
2023-05-11T20:00:44.885Z,17.77
2023-05-11T20:03:11.926Z,17.10
2023-05-11T20:05:38.880Z,17.87
2023-05-11T20:08:06.330Z,17.90
2023-05-11T20:10:33.699Z,17.80
2023-05-11T20:13:00.500Z,19.23
2023-05-11T20:15:27.244Z,19.73
2023-05-11T20:17:53.995Z,19.43
2023-05-11T20:20:20.984Z,19.23
2023-05-11T20:22:48.020Z,20.93
2023-05-11T20:25:18.849Z,20.27
2023-05-11T20:27:46.071Z,20.50
2023-05-11T20:30:13.015Z,21.67
2023-05-11T20:35:26.969Z,23.07
2023-05-11T20:37:55.047Z,22.97
2023-05-11T20:40:22.486Z,22.10
2023-05-11T20:42:49.377Z,22.77
2023-05-11T20:45:16.309Z,23.07
2023-05-11T20:47:43.644Z,23.90
2023-05-11T20:50:11.154Z,22.33
2023-05-11T20:52:38.242Z,22.63
2023-05-11T20:55:05.850Z,20.57
2023-05-11T20:57:32.646Z,23.17
2023-05-11T21:02:29.391Z,23.77
2023-05-11T21:05:02.072Z,23.97
2023-05-11T21:07:29.185Z,23.30
2023-05-11T21:09:56.011Z,23.53
2023-05-11T21:12:23.533Z,24.40
2023-05-11T21:14:50.410Z,24.73
2023-05-11T21:17:17.178Z,24.60
2023-05-11T21:19:43.963Z,23.63
2023-05-11T21:22:11.118Z,23.63
2023-05-11T21:24:37.954Z,24.23
2023-05-11T21:27:04.772Z,25.83
2023-05-11T21:29:31.630Z,24.77
2023-05-11T21:31:58.436Z,26.17
2023-05-11T21:34:25.168Z,25.87
2023-05-11T21:36:51.989Z,24.90
2023-05-11T21:39:18.940Z,23.97
2023-05-11T21:41:45.756Z,25.00
2023-05-11T21:44:12.539Z,25.70
2023-05-11T21:46:39.183Z,25.90
2023-05-11T21:49:06.401Z,25.20
2023-05-11T21:51:33.737Z,23.43
2023-05-11T21:54:00.613Z,22.93
2023-05-11T21:56:27.456Z,23.80
2023-05-11T21:58:54.383Z,23.97
2023-05-11T22:01:21.141Z,25.03
2023-05-11T22:03:47.931Z,24.00
2023-05-11T22:06:14.673Z,22.37
2023-05-11T22:08:41.349Z,22.93
2023-05-11T22:11:08.050Z,23.97
2023-05-11T22:13:35.039Z,21.90
2023-05-11T22:16:01.726Z,22.73
2023-05-11T22:18:28.880Z,23.90
2023-05-11T22:20:55.837Z,24.23
2023-05-11T22:23:22.619Z,24.93
2023-05-11T22:25:49.386Z,25.97
2023-05-11T22:28:16.095Z,25.57
2023-05-11T22:30:43.305Z,25.30
2023-05-11T22:33:10.040Z,26.13
2023-05-11T22:35:36.946Z,25.77
2023-05-11T22:38:04.515Z,26.63
2023-05-11T22:40:31.222Z,26.70
2023-05-11T22:42:58.247Z,26.77
2023-05-11T22:45:24.960Z,27.33
2023-05-11T22:47:51.698Z,28.27
2023-05-11T22:50:18.754Z,26.33
2023-05-11T22:52:45.727Z,27.90
2023-05-11T22:55:12.388Z,28.33
2023-05-11T22:57:39.111Z,27.80
2023-05-11T23:00:06.225Z,27.53
2023-05-11T23:02:33.616Z,28.73
2023-05-11T23:05:00.471Z,28.07
2023-05-11T23:07:27.370Z,28.20
2023-05-11T23:09:54.125Z,28.80
2023-05-11T23:12:20.971Z,27.90
2023-05-11T23:14:47.700Z,28.27
2023-05-11T23:17:14.631Z,27.67
2023-05-11T23:19:41.813Z,26.70
2023-05-11T23:22:08.577Z,26.83
2023-05-11T23:24:35.274Z,26.90
2023-05-11T23:27:03.482Z,26.23
2023-05-11T23:29:30.870Z,28.10
2023-05-11T23:31:57.634Z,27.10
2023-05-11T23:34:24.272Z,26.10
2023-05-11T23:36:51.064Z,26.40
2023-05-11T23:39:18.105Z,24.73
2023-05-11T23:41:44.792Z,26.73
2023-05-11T23:44:11.904Z,26.80
2023-05-11T23:46:39.110Z,27.00
2023-05-11T23:49:05.739Z,27.50
2023-05-11T23:51:32.561Z,28.57
2023-05-11T23:53:59.819Z,29.07
2023-05-11T23:56:26.483Z,28.53
2023-05-11T23:58:53.311Z,28.20
